Terminal Aerodrome Forecast
Issued by NWS Grand Junction, CO

Home | Current Version | Previous Version | Text Only | Print | Product List | Glossary On
Versions: 1 2 3 4 5 6 7 8 9 10 11 12 13 14 15 16 17 18 19 20 21 22 23 24 25 26 27 28 29 30 31 32 33 34 35 36 37 38 39 40 41 42 43
000
FTUS45 KGJT 271733
TAFGJT
TAF
KGJT 271733Z 2718/2818 15005KT P6SM SCT110 SCT150
     FM272000 29006KT P6SM VCSH FEW070 SCT120
     FM280200 04005KT P6SM VCSH SCT080 BKN120
     FM280600 09006KT P6SM SCT120 BKN250
     FM281400 14006KT P6SM SCT120 BKN250=

USA.gov is the U.S. government's official web portal to all federal, state and local government web resources and services.